Time;durP1;ratioP1;P1;durP2;ratioP2;P2;SDS_P1;SDS_P2;PMS_P1;PMS_P2;Temp;Humidity;BMP_temperature;BMP_pressure;BME280_temperature;BME280_humidity;BME280_pressure;Samples;Min_cycle;Max_cycle;Signal;HPM_P1;HPM_P2
2022/10/13 00:01:05;;;;;;;;;;;9.30;99.90;;;;;;6115983;23;19932;-62
2022/10/13 00:03:31;;;;;;;;;;;9.30;99.90;;;;;;6114289;23;20363;-62
2022/10/13 00:05:56;;;;;;;;;;;9.30;99.90;;;;;;6115701;23;19925;-61
2022/10/13 00:08:24;;;;;;;;;;;9.30;99.90;;;;;;6116119;23;19931;-61
2022/10/13 00:10:50;;;;;;;;;;;9.30;99.90;;;;;;6116188;23;19925;-62
2022/10/13 00:13:16;;;;;;;;;;;9.50;99.90;;;;;;6116407;23;20454;-61
2022/10/13 00:15:43;;;;;;;;;;;9.30;99.90;;;;;;6116803;23;19992;-62
2022/10/13 00:18:08;;;;;;;;;;;9.60;99.90;;;;;;6116155;23;19925;-61
2022/10/13 00:20:34;;;;;;;;;;;9.40;99.90;;;;;;6116566;23;19960;-61
2022/10/13 00:22:59;;;;;;;;;;;9.40;99.90;;;;;;6116362;23;19947;-61
2022/10/13 00:25:25;;;;;;;;;;;9.80;99.90;;;;;;6116287;23;19987;-62
2022/10/13 00:27:51;;;;;;;;;;;9.40;99.90;;;;;;6116425;23;19986;-62
2022/10/13 00:30:16;;;;;;;;;;;9.40;99.90;;;;;;6116732;23;19925;-62
2022/10/13 00:32:42;;;;;;;;;;;9.40;99.90;;;;;;6116463;23;19931;-62
2022/10/13 00:35:08;;;;;;;;;;;9.50;99.90;;;;;;6115967;23;19952;-62
2022/10/13 00:37:33;;;;;;;;;;;9.40;99.90;;;;;;6116022;23;19929;-62
2022/10/13 00:39:59;;;;;;;;;;;9.40;99.90;;;;;;6114776;23;19929;-63
2022/10/13 00:42:27;;;;;;;;;;;9.40;99.90;;;;;;6116471;23;19924;-62
2022/10/13 00:44:59;;;;;;;;;;;9.40;99.90;;;;;;6116850;23;20371;-62
2022/10/13 00:47:31;;;;;;;;;;;9.40;99.90;;;;;;6116231;23;19924;-62
2022/10/13 00:49:57;;;;;;;;;;;9.40;99.90;;;;;;6116670;23;19968;-62
2022/10/13 00:52:23;;;;;;;;;;;9.40;99.90;;;;;;6116660;23;19924;-62
2022/10/13 00:54:49;;;;;;;;;;;9.40;99.90;;;;;;6116263;23;19925;-62
2022/10/13 00:57:16;;;;;;;;;;;9.40;99.90;;;;;;6116425;23;19985;-62
2022/10/13 00:59:42;;;;;;;;;;;9.50;99.90;;;;;;6116545;23;19925;-62
2022/10/13 01:02:08;;;;;;;;;;;9.40;99.90;;;;;;6115600;23;19925;-62
2022/10/13 01:04:36;;;;;;;;;;;9.50;99.90;;;;;;6116682;23;19929;-62
2022/10/13 01:07:01;;;;;;;;;;;9.40;99.90;;;;;;6115754;23;19964;-62
2022/10/13 01:09:34;;;;;;;;;;;9.50;99.90;;;;;;6116345;23;19925;-62
2022/10/13 01:12:19;;;;;;;;;;;9.50;99.90;;;;;;6115994;23;20343;-62
2022/10/13 01:15:03;;;;;;;;;;;9.40;99.90;;;;;;6116042;23;20336;-62
2022/10/13 01:17:46;;;;;;;;;;;9.50;99.90;;;;;;6116133;23;19925;-62
2022/10/13 01:20:31;;;;;;;;;;;9.50;99.90;;;;;;6116525;23;20324;-62
2022/10/13 01:23:14;;;;;;;;;;;9.50;99.90;;;;;;6116005;23;19924;-62
2022/10/13 01:25:39;;;;;;;;;;;9.50;99.90;;;;;;6116421;23;19932;-62
2022/10/13 01:28:18;;;;;;;;;;;9.50;99.90;;;;;;6116696;23;19929;-62
2022/10/13 01:30:50;;;;;;;;;;;9.50;99.90;;;;;;6116655;23;19932;-62
2022/10/13 01:33:19;;;;;;;;;;;9.50;99.90;;;;;;6116647;23;19925;-61
2022/10/13 01:35:47;;;;;;;;;;;9.50;99.90;;;;;;6116232;23;20003;-61
2022/10/13 01:38:31;;;;;;;;;;;9.50;99.90;;;;;;6116627;23;19929;-62
2022/10/13 01:41:15;;;;;;;;;;;9.40;99.90;;;;;;6116192;23;19980;-61
2022/10/13 01:43:46;;;;;;;;;;;9.40;99.90;;;;;;6115562;23;20344;-61
2022/10/13 01:46:14;;;;;;;;;;;9.50;99.90;;;;;;6116076;23;20367;-61
2022/10/13 01:48:41;;;;;;;;;;;9.40;99.90;;;;;;6116007;23;19947;-61
2022/10/13 01:51:10;;;;;;;;;;;9.40;99.90;;;;;;6115834;23;19924;-61
2022/10/13 01:53:36;;;;;;;;;;;9.40;99.90;;;;;;6116077;23;19964;-61
2022/10/13 01:56:01;;;;;;;;;;;9.40;99.90;;;;;;6116225;23;19932;-62
2022/10/13 01:58:28;;;;;;;;;;;9.40;99.90;;;;;;6116179;23;20281;-61
2022/10/13 02:01:09;;;;;;;;;;;9.40;99.90;;;;;;6116424;23;19924;-63
2022/10/13 02:03:51;;;;;;;;;;;9.40;99.90;;;;;;6116002;23;20344;-62
2022/10/13 02:06:20;;;;;;;;;;;9.40;99.90;;;;;;6116185;23;19932;-61
2022/10/13 02:09:02;;;;;;;;;;;9.30;99.90;;;;;;6115452;23;19983;-63
2022/10/13 02:11:28;;;;;;;;;;;9.30;99.90;;;;;;6115673;23;20366;-62
2022/10/13 02:14:03;;;;;;;;;;;9.30;99.90;;;;;;6116196;23;19925;-62
2022/10/13 02:16:32;;;;;;;;;;;9.30;99.90;;;;;;6116698;23;20267;-62
2022/10/13 02:18:59;;;;;;;;;;;9.30;99.90;;;;;;6117791;23;19932;-62
2022/10/13 02:21:24;;;;;;;;;;;9.30;99.90;;;;;;6116385;23;20418;-62
2022/10/13 02:23:50;;;;;;;;;;;9.30;99.90;;;;;;6117543;23;19925;-62
2022/10/13 02:26:16;;;;;;;;;;;9.30;99.90;;;;;;6115395;23;19925;-62
2022/10/13 02:28:41;;;;;;;;;;;9.50;99.90;;;;;;6117201;23;19992;-62
2022/10/13 02:31:08;;;;;;;;;;;9.20;99.90;;;;;;6115113;23;20420;-62
2022/10/13 02:33:33;;;;;;;;;;;9.20;99.90;;;;;;6115801;23;19929;-62
2022/10/13 02:35:59;;;;;;;;;;;9.20;99.90;;;;;;6117315;23;19925;-62
2022/10/13 02:38:24;;;;;;;;;;;9.20;99.90;;;;;;6117069;23;19978;-62
2022/10/13 02:40:50;;;;;;;;;;;9.20;99.90;;;;;;6117110;23;19932;-62
2022/10/13 02:43:15;;;;;;;;;;;9.20;99.90;;;;;;6116701;23;19932;-62
2022/10/13 02:45:41;;;;;;;;;;;9.20;99.90;;;;;;6117272;23;19925;-62
2022/10/13 02:48:06;;;;;;;;;;;9.40;99.90;;;;;;6117331;23;19925;-62
2022/10/13 02:50:32;;;;;;;;;;;9.20;99.90;;;;;;6116211;23;19948;-62
2022/10/13 02:52:58;;;;;;;;;;;9.20;99.90;;;;;;6117172;23;19978;-62
2022/10/13 02:55:23;;;;;;;;;;;9.20;99.90;;;;;;6116767;23;20267;-62
2022/10/13 02:57:49;;;;;;;;;;;9.20;99.90;;;;;;6116530;23;19925;-62
2022/10/13 03:00:14;;;;;;;;;;;9.30;99.90;;;;;;6117590;23;19996;-63
2022/10/13 03:02:41;;;;;;;;;;;9.30;99.90;;;;;;6116056;23;20237;-62
2022/10/13 03:05:06;;;;;;;;;;;9.30;99.90;;;;;;6116245;23;19936;-63
2022/10/13 03:07:32;;;;;;;;;;;9.30;99.90;;;;;;6116621;23;19925;-62
2022/10/13 03:09:57;;;;;;;;;;;9.30;99.90;;;;;;6117052;23;20225;-62
2022/10/13 03:12:23;;;;;;;;;;;9.20;99.90;;;;;;6116649;23;20252;-62
2022/10/13 03:14:48;;;;;;;;;;;9.30;99.90;;;;;;6116427;23;19925;-62
2022/10/13 03:17:14;;;;;;;;;;;9.30;99.90;;;;;;6116790;23;20349;-62
2022/10/13 03:19:39;;;;;;;;;;;9.30;99.90;;;;;;6116345;23;20293;-62
2022/10/13 03:22:05;;;;;;;;;;;9.30;99.90;;;;;;6116471;23;19965;-63
2022/10/13 03:24:30;;;;;;;;;;;11.00;99.90;;;;;;6115535;23;19959;-62
2022/10/13 03:26:56;;;;;;;;;;;9.70;99.90;;;;;;6117088;23;19932;-62
2022/10/13 03:29:22;;;;;;;;;;;9.30;99.90;;;;;;6115270;23;19932;-63
2022/10/13 03:31:47;;;;;;;;;;;9.30;99.90;;;;;;6116876;23;20208;-63
2022/10/13 03:34:14;;;;;;;;;;;9.40;99.90;;;;;;6116707;23;19929;-61
2022/10/13 03:36:39;;;;;;;;;;;9.30;99.90;;;;;;6116778;23;19924;-61
2022/10/13 03:39:05;;;;;;;;;;;9.40;99.90;;;;;;6116412;23;19936;-61
2022/10/13 03:41:31;;;;;;;;;;;9.40;99.90;;;;;;6116102;23;19925;-61
2022/10/13 03:43:56;;;;;;;;;;;9.40;99.90;;;;;;6116588;23;20033;-62
2022/10/13 03:46:23;;;;;;;;;;;9.40;99.90;;;;;;6116886;23;19931;-61
2022/10/13 03:48:49;;;;;;;;;;;9.40;99.90;;;;;;6116292;23;19971;-61
2022/10/13 03:51:16;;;;;;;;;;;9.40;99.90;;;;;;6116481;23;19925;-61
2022/10/13 03:53:41;;;;;;;;;;;9.40;99.90;;;;;;6116796;23;20039;-61
2022/10/13 03:56:10;;;;;;;;;;;9.70;99.90;;;;;;6117149;23;20454;-61
2022/10/13 03:58:36;;;;;;;;;;;9.40;99.90;;;;;;6116609;23;19932;-61
2022/10/13 04:01:02;;;;;;;;;;;9.50;99.90;;;;;;6116851;23;19925;-61
2022/10/13 04:03:27;;;;;;;;;;;9.50;99.90;;;;;;6116490;23;19925;-61
2022/10/13 04:05:53;;;;;;;;;;;9.50;99.90;;;;;;6116272;23;20011;-61
2022/10/13 04:08:18;;;;;;;;;;;9.50;99.90;;;;;;6115561;23;19925;-61
2022/10/13 04:10:44;;;;;;;;;;;9.50;99.90;;;;;;6116637;23;19925;-61
2022/10/13 04:13:10;;;;;;;;;;;9.50;99.90;;;;;;6116244;23;19928;-62
2022/10/13 04:15:36;;;;;;;;;;;9.70;99.90;;;;;;6116638;23;19925;-63
2022/10/13 04:18:01;;;;;;;;;;;9.60;99.90;;;;;;6116752;23;19929;-62
2022/10/13 04:20:27;;;;;;;;;;;9.70;99.90;;;;;;6116813;23;20729;-61
2022/10/13 04:22:52;;;;;;;;;;;9.60;99.90;;;;;;6116806;23;19925;-62
2022/10/13 04:25:18;;;;;;;;;;;9.60;99.90;;;;;;6117193;23;19931;-62
2022/10/13 04:27:44;;;;;;;;;;;9.60;99.90;;;;;;6116728;23;19924;-61
2022/10/13 04:30:10;;;;;;;;;;;9.60;99.90;;;;;;6116148;23;19925;-63
2022/10/13 04:32:35;;;;;;;;;;;9.60;99.90;;;;;;6116262;23;19991;-62
2022/10/13 04:35:01;;;;;;;;;;;9.60;99.90;;;;;;6116766;23;20259;-62
2022/10/13 04:37:26;;;;;;;;;;;9.60;99.90;;;;;;6116826;23;20335;-62
2022/10/13 04:39:52;;;;;;;;;;;9.60;99.90;;;;;;6114981;23;20001;-60
2022/10/13 04:42:17;;;;;;;;;;;9.60;99.90;;;;;;6115389;23;19925;-61
2022/10/13 04:44:43;;;;;;;;;;;9.60;99.90;;;;;;6115375;23;19951;-61
2022/10/13 04:47:08;;;;;;;;;;;9.60;99.90;;;;;;6114999;23;19925;-61
2022/10/13 04:49:34;;;;;;;;;;;9.60;99.90;;;;;;6115458;23;20340;-61
2022/10/13 04:51:59;;;;;;;;;;;9.60;99.90;;;;;;6115425;23;20255;-61
2022/10/13 04:54:25;;;;;;;;;;;9.60;99.90;;;;;;6115656;23;19931;-61
2022/10/13 04:56:50;;;;;;;;;;;9.60;99.90;;;;;;6115180;23;20027;-61
2022/10/13 04:59:16;;;;;;;;;;;9.60;99.90;;;;;;6115258;23;19979;-61
2022/10/13 05:01:42;;;;;;;;;;;10.00;99.90;;;;;;6114819;23;19925;-61
2022/10/13 05:04:08;;;;;;;;;;;9.60;99.90;;;;;;6114486;23;19936;-61
2022/10/13 05:06:35;;;;;;;;;;;9.70;99.90;;;;;;6114768;23;19929;-61
2022/10/13 05:09:01;;;;;;;;;;;9.70;99.90;;;;;;6115411;23;19924;-61
2022/10/13 05:11:27;;;;;;;;;;;9.70;99.90;;;;;;6114714;23;20350;-62
2022/10/13 05:13:53;;;;;;;;;;;9.70;99.90;;;;;;6115221;23;20141;-61
2022/10/13 05:16:19;;;;;;;;;;;9.60;99.90;;;;;;6115043;23;19925;-62
2022/10/13 05:18:45;;;;;;;;;;;9.70;99.90;;;;;;6114588;23;19932;-63
2022/10/13 05:21:12;;;;;;;;;;;9.70;99.90;;;;;;6115015;23;19925;-61
2022/10/13 05:23:38;;;;;;;;;;;9.70;99.90;;;;;;6114717;23;19925;-62
2022/10/13 05:26:05;;;;;;;;;;;9.70;99.90;;;;;;6114504;23;19964;-64
2022/10/13 05:28:30;;;;;;;;;;;9.70;99.90;;;;;;6115638;23;19932;-63
2022/10/13 05:30:56;;;;;;;;;;;9.70;99.90;;;;;;6115600;23;19925;-63
2022/10/13 05:33:22;;;;;;;;;;;9.70;99.90;;;;;;6115638;23;19925;-63
2022/10/13 05:35:47;;;;;;;;;;;9.70;99.90;;;;;;6115801;23;20024;-64
2022/10/13 05:38:13;;;;;;;;;;;9.90;99.90;;;;;;6116010;23;20401;-62
2022/10/13 05:40:38;;;;;;;;;;;9.70;99.90;;;;;;6115391;23;19925;-64
2022/10/13 05:43:04;;;;;;;;;;;9.70;99.90;;;;;;6116269;23;19924;-63
2022/10/13 05:45:31;;;;;;;;;;;9.70;99.90;;;;;;6114330;23;19925;-66
2022/10/13 05:47:57;;;;;;;;;;;9.80;99.90;;;;;;6115215;23;19999;-64
2022/10/13 05:50:22;;;;;;;;;;;9.80;99.90;;;;;;6118473;23;20421;-66
2022/10/13 05:52:48;;;;;;;;;;;9.80;99.90;;;;;;6118523;23;20011;-64
2022/10/13 05:55:16;;;;;;;;;;;9.80;99.90;;;;;;6119631;23;20008;-65
2022/10/13 05:57:44;;;;;;;;;;;9.80;99.90;;;;;;6119442;23;19925;-61
2022/10/13 06:00:12;;;;;;;;;;;9.80;99.90;;;;;;6118336;23;19932;-61
2022/10/13 06:02:43;;;;;;;;;;;9.80;99.90;;;;;;6119497;23;19929;-60
2022/10/13 06:05:14;;;;;;;;;;;9.80;99.90;;;;;;6119459;23;19978;-61
2022/10/13 06:07:40;;;;;;;;;;;9.90;99.90;;;;;;6118619;23;19987;-61
2022/10/13 06:10:08;;;;;;;;;;;9.90;99.90;;;;;;6118512;23;20390;-61
2022/10/13 06:12:33;;;;;;;;;;;9.90;99.90;;;;;;6118194;23;20002;-61
2022/10/13 06:14:59;;;;;;;;;;;9.90;99.90;;;;;;6119117;23;19996;-61
2022/10/13 06:17:24;;;;;;;;;;;9.90;99.90;;;;;;6117982;23;19999;-63
2022/10/13 06:19:50;;;;;;;;;;;10.00;99.90;;;;;;6116070;23;19993;-61
2022/10/13 06:22:16;;;;;;;;;;;10.00;99.90;;;;;;6118769;23;19961;-61
2022/10/13 06:24:42;;;;;;;;;;;10.00;99.90;;;;;;6118850;23;19932;-61
2022/10/13 06:27:07;;;;;;;;;;;10.00;99.90;;;;;;6118462;23;20319;-61
2022/10/13 06:29:33;;;;;;;;;;;10.00;99.90;;;;;;6118437;23;20328;-61
2022/10/13 06:31:59;;;;;;;;;;;10.40;99.90;;;;;;6118467;23;19925;-61
2022/10/13 06:34:24;;;;;;;;;;;10.10;99.90;;;;;;6118639;23;19928;-61
2022/10/13 06:36:50;;;;;;;;;;;10.10;99.90;;;;;;6117156;23;19925;-61
2022/10/13 06:39:15;;;;;;;;;;;10.10;99.90;;;;;;6116982;23;20283;-61
2022/10/13 06:41:41;;;;;;;;;;;10.10;99.90;;;;;;6115946;23;19925;-61
2022/10/13 06:44:06;;;;;;;;;;;10.20;99.90;;;;;;6116372;23;19925;-61
2022/10/13 06:46:32;;;;;;;;;;;10.20;99.90;;;;;;6116592;23;19925;-61
2022/10/13 06:48:58;;;;;;;;;;;10.20;99.90;;;;;;6116491;23;19978;-61
2022/10/13 06:51:23;;;;;;;;;;;10.20;99.90;;;;;;6115954;23;20032;-61
2022/10/13 06:53:49;;;;;;;;;;;10.30;99.90;;;;;;6115549;23;19925;-61
2022/10/13 06:56:14;;;;;;;;;;;10.30;99.90;;;;;;6115856;23;19976;-61
2022/10/13 06:58:40;;;;;;;;;;;10.30;99.90;;;;;;6115272;23;20332;-63
2022/10/13 07:01:06;;;;;;;;;;;10.30;99.90;;;;;;6114563;23;19960;-62
2022/10/13 07:03:31;;;;;;;;;;;10.40;99.90;;;;;;6114681;23;19948;-62
2022/10/13 07:06:04;;;;;;;;;;;10.50;99.90;;;;;;6114591;23;19925;-61
2022/10/13 07:08:30;;;;;;;;;;;10.50;99.90;;;;;;6088382;23;19932;-62
2022/10/13 07:10:56;;;;;;;;;;;10.60;99.90;;;;;;6114085;23;20292;-61
2022/10/13 07:13:22;;;;;;;;;;;10.70;99.90;;;;;;6114578;23;19949;-61
2022/10/13 07:15:47;;;;;;;;;;;10.80;99.90;;;;;;6115186;23;20340;-61
2022/10/13 07:18:13;;;;;;;;;;;10.80;99.90;;;;;;6112115;23;20523;-61
2022/10/13 07:20:38;;;;;;;;;;;10.80;99.90;;;;;;6114568;23;19986;-63
2022/10/13 07:23:04;;;;;;;;;;;10.90;99.90;;;;;;6114360;23;19989;-61
2022/10/13 07:25:29;;;;;;;;;;;10.90;99.90;;;;;;6114566;23;19925;-64
2022/10/13 07:27:57;;;;;;;;;;;11.00;99.90;;;;;;6115320;23;20298;-62
2022/10/13 07:30:22;;;;;;;;;;;11.00;99.90;;;;;;6115220;23;19925;-62
2022/10/13 07:32:48;;;;;;;;;;;11.00;99.90;;;;;;6114563;23;20379;-62
2022/10/13 07:35:13;;;;;;;;;;;11.10;99.90;;;;;;6115260;23;19936;-61
2022/10/13 07:37:39;;;;;;;;;;;11.40;99.90;;;;;;6114098;23;19925;-62
2022/10/13 07:40:05;;;;;;;;;;;11.00;99.90;;;;;;6114780;23;19929;-62
2022/10/13 07:42:31;;;;;;;;;;;11.10;99.90;;;;;;6114371;23;20354;-62
2022/10/13 07:44:56;;;;;;;;;;;11.10;99.90;;;;;;6115095;23;20262;-63
2022/10/13 07:47:22;;;;;;;;;;;11.20;99.90;;;;;;6113321;23;19925;-62
2022/10/13 07:49:47;;;;;;;;;;;11.20;99.90;;;;;;6114223;23;19928;-61
2022/10/13 07:52:13;;;;;;;;;;;10.70;99.90;;;;;;6114979;23;19929;-62
2022/10/13 07:54:38;;;;;;;;;;;11.30;99.90;;;;;;6112935;23;19976;-65
2022/10/13 07:57:04;;;;;;;;;;;11.30;99.90;;;;;;6113855;23;19928;-63
2022/10/13 07:59:33;;;;;;;;;;;11.40;99.90;;;;;;6113790;23;19925;-62
2022/10/13 08:01:59;;;;;;;;;;;11.50;99.90;;;;;;6114679;23;19987;-61
2022/10/13 08:04:31;;;;;;;;;;;11.50;99.90;;;;;;6115518;23;19968;-61
2022/10/13 08:06:57;;;;;;;;;;;11.50;99.90;;;;;;6114506;23;19931;-63
2022/10/13 08:09:24;;;;;;;;;;;11.60;99.90;;;;;;6114359;23;19925;-62
2022/10/13 08:11:49;;;;;;;;;;;11.50;99.90;;;;;;6113135;23;19986;-61
2022/10/13 08:14:15;;;;;;;;;;;11.60;99.90;;;;;;6115082;23;19929;-62
2022/10/13 08:16:44;;;;;;;;;;;11.60;99.90;;;;;;6114394;23;19931;-62
2022/10/13 08:19:12;;;;;;;;;;;11.70;99.90;;;;;;6114237;23;19932;-62
2022/10/13 08:21:38;;;;;;;;;;;11.70;99.90;;;;;;6114676;23;19925;-62
2022/10/13 08:24:09;;;;;;;;;;;11.90;99.90;;;;;;6114920;23;19974;-61
2022/10/13 08:26:34;;;;;;;;;;;12.00;99.90;;;;;;6116055;23;20340;-63
2022/10/13 08:29:00;;;;;;;;;;;12.10;99.90;;;;;;6114041;23;19925;-62
2022/10/13 08:31:26;;;;;;;;;;;12.20;99.90;;;;;;6114618;23;20031;-62
2022/10/13 08:33:51;;;;;;;;;;;12.40;99.90;;;;;;6114564;23;20000;-63
2022/10/13 08:36:17;;;;;;;;;;;12.40;99.90;;;;;;6115897;23;20000;-64
2022/10/13 08:38:43;;;;;;;;;;;12.50;99.90;;;;;;6115325;23;19992;-62
2022/10/13 08:41:14;;;;;;;;;;;12.60;99.90;;;;;;6115974;23;20359;-62
2022/10/13 08:43:40;;;;;;;;;;;12.60;99.90;;;;;;6116240;23;19928;-62
2022/10/13 08:46:07;;;;;;;;;;;12.60;99.90;;;;;;6116512;23;20294;-61
2022/10/13 08:48:35;;;;;;;;;;;12.70;99.90;;;;;;6115749;23;19929;-62
2022/10/13 08:51:04;;;;;;;;;;;12.90;99.90;;;;;;6113824;23;19925;-62
2022/10/13 08:53:32;;;;;;;;;;;12.80;99.90;;;;;;6114892;23;19932;-62
2022/10/13 08:55:59;;;;;;;;;;;12.90;99.90;;;;;;6116394;23;19925;-62
2022/10/13 08:58:33;;;;;;;;;;;12.90;99.90;;;;;;6115941;23;20221;-63
2022/10/13 09:01:07;;;;;;;;;;;12.90;99.90;;;;;;6114103;23;19925;-62
2022/10/13 09:03:51;;;;;;;;;;;13.00;99.90;;;;;;6116264;23;20334;-62
2022/10/13 09:06:17;;;;;;;;;;;13.00;99.90;;;;;;6115589;23;20025;-62
2022/10/13 09:08:47;;;;;;;;;;;13.00;99.90;;;;;;6115910;23;20279;-63
2022/10/13 09:11:13;;;;;;;;;;;13.10;99.90;;;;;;6115165;23;20565;-62
2022/10/13 09:13:39;;;;;;;;;;;13.20;99.90;;;;;;6116091;23;19929;-62
2022/10/13 09:16:05;;;;;;;;;;;13.20;99.90;;;;;;6115751;23;19925;-62
2022/10/13 09:18:31;;;;;;;;;;;13.10;99.90;;;;;;6115374;23;19924;-65
2022/10/13 09:21:09;;;;;;;;;;;13.10;99.90;;;;;;6115392;23;19925;-64
2022/10/13 09:23:34;;;;;;;;;;;13.10;99.90;;;;;;6115489;23;19925;-62
2022/10/13 09:26:05;;;;;;;;;;;13.10;99.90;;;;;;6116477;23;19932;-67
2022/10/13 09:28:31;;;;;;;;;;;13.00;99.90;;;;;;6114501;23;19925;-66
2022/10/13 09:31:16;;;;;;;;;;;13.10;99.90;;;;;;6116076;23;19925;-64
2022/10/13 09:33:43;;;;;;;;;;;13.10;99.90;;;;;;6115973;23;19925;-64
2022/10/13 09:36:13;;;;;;;;;;;13.20;99.90;;;;;;6113574;23;19957;-65
2022/10/13 09:38:39;;;;;;;;;;;13.20;99.90;;;;;;6111710;23;20328;-65
2022/10/13 09:41:08;;;;;;;;;;;13.20;99.90;;;;;;6113620;23;19925;-66
2022/10/13 09:43:35;;;;;;;;;;;13.20;99.90;;;;;;6112526;23;19979;-66
2022/10/13 09:46:02;;;;;;;;;;;13.40;99.90;;;;;;6113669;23;19925;-66
2022/10/13 09:48:30;;;;;;;;;;;13.60;99.90;;;;;;6114675;23;20392;-66
2022/10/13 09:50:56;;;;;;;;;;;13.60;99.90;;;;;;6115364;23;20007;-65
2022/10/13 09:53:21;;;;;;;;;;;13.90;99.90;;;;;;6115619;23;19948;-63
2022/10/13 09:55:48;;;;;;;;;;;13.70;99.90;;;;;;6115124;23;19950;-62
2022/10/13 09:58:30;;;;;;;;;;;13.80;99.90;;;;;;6115777;23;19929;-63
2022/10/13 10:00:56;;;;;;;;;;;14.00;99.90;;;;;;6115445;23;20332;-63
2022/10/13 10:03:28;;;;;;;;;;;14.00;99.90;;;;;;6115555;23;19932;-65
2022/10/13 10:05:55;;;;;;;;;;;14.00;99.90;;;;;;6115325;23;20016;-62
2022/10/13 10:08:30;;;;;;;;;;;14.10;99.90;;;;;;6114465;23;19925;-62
2022/10/13 10:10:56;;;;;;;;;;;14.10;99.90;;;;;;6114799;23;19925;-61
2022/10/13 10:13:23;;;;;;;;;;;14.40;99.90;;;;;;6114156;23;19925;-62
2022/10/13 10:15:55;;;;;;;;;;;14.30;99.90;;;;;;6113489;23;19971;-62
2022/10/13 10:18:40;;;;;;;;;;;14.20;99.90;;;;;;6114044;23;19925;-63
2022/10/13 10:21:22;;;;;;;;;;;14.00;99.90;;;;;;6088347;23;19929;-62
2022/10/13 10:23:51;;;;;;;;;;;13.90;99.90;;;;;;6114656;23;19924;-64
2022/10/13 10:26:16;;;;;;;;;;;13.90;99.90;;;;;;6115450;23;19959;-63
2022/10/13 10:28:42;;;;;;;;;;;13.80;99.90;;;;;;6114801;23;19925;-62
2022/10/13 10:31:16;;;;;;;;;;;13.80;99.90;;;;;;6113796;23;19925;-62
2022/10/13 10:33:55;;;;;;;;;;;13.80;99.90;;;;;;6114486;23;20268;-62
2022/10/13 10:36:26;;;;;;;;;;;13.80;99.90;;;;;;6116344;23;20050;-64
2022/10/13 10:38:54;;;;;;;;;;;13.90;99.90;;;;;;6114857;23;19925;-62
2022/10/13 10:41:32;;;;;;;;;;;13.80;99.90;;;;;;6115728;23;19932;-63
2022/10/13 10:44:00;;;;;;;;;;;13.80;99.90;;;;;;6116813;23;19926;-62
2022/10/13 10:46:35;;;;;;;;;;;14.00;99.90;;;;;;6115503;23;20340;-63
2022/10/13 10:49:03;;;;;;;;;;;14.10;99.90;;;;;;6116915;23;20229;-65
2022/10/13 10:51:36;;;;;;;;;;;14.10;99.90;;;;;;6116835;23;19932;-65
2022/10/13 10:54:02;;;;;;;;;;;14.10;99.90;;;;;;6117125;23;19940;-62
2022/10/13 10:56:33;;;;;;;;;;;14.00;99.90;;;;;;6115734;23;20046;-62
2022/10/13 10:59:14;;;;;;;;;;;13.90;99.90;;;;;;6116817;23;20402;-62
2022/10/13 11:01:47;;;;;;;;;;;13.90;99.90;;;;;;6116863;23;19970;-62
2022/10/13 11:04:34;;;;;;;;;;;14.00;99.90;;;;;;6116861;23;19929;-63
2022/10/13 11:07:00;;;;;;;;;;;14.00;99.90;;;;;;6121745;23;20430;-62
2022/10/13 11:09:56;;;;;;;;;;;13.90;99.90;;;;;;6116972;23;20047;-63
2022/10/13 11:12:22;;;;;;;;;;;14.00;99.90;;;;;;6122951;23;20401;-64
2022/10/13 11:14:54;;;;;;;;;;;14.20;99.90;;;;;;6116437;23;19924;-62
2022/10/13 11:17:29;;;;;;;;;;;14.10;99.90;;;;;;6116729;23;19925;-63
2022/10/13 11:19:55;;;;;;;;;;;14.20;99.90;;;;;;6116828;23;19932;-63
2022/10/13 11:22:22;;;;;;;;;;;14.20;99.90;;;;;;6116796;23;19980;-63
2022/10/13 11:24:52;;;;;;;;;;;14.10;99.90;;;;;;6115740;23;19925;-64
2022/10/13 11:27:25;;;;;;;;;;;14.20;99.90;;;;;;6113174;23;19925;-62
2022/10/13 11:29:57;;;;;;;;;;;14.40;99.90;;;;;;6116491;23;19952;-62
2022/10/13 11:32:26;;;;;;;;;;;14.40;99.90;;;;;;6116184;23;19925;-62
2022/10/13 11:34:58;;;;;;;;;;;14.50;99.90;;;;;;6116068;23;20339;-62
2022/10/13 11:37:27;;;;;;;;;;;14.50;99.90;;;;;;6115529;23;19965;-62
2022/10/13 11:40:13;;;;;;;;;;;14.50;99.90;;;;;;6116662;23;19924;-63
2022/10/13 11:42:58;;;;;;;;;;;14.60;99.90;;;;;;6114698;23;19980;-62
2022/10/13 11:45:26;;;;;;;;;;;14.70;99.90;;;;;;6114388;23;19932;-62
2022/10/13 11:48:01;;;;;;;;;;;14.60;99.90;;;;;;6114852;23;19931;-63
2022/10/13 11:50:35;;;;;;;;;;;14.60;99.90;;;;;;6116001;23;19925;-62
2022/10/13 11:53:01;;;;;;;;;;;14.60;99.90;;;;;;6116026;23;19951;-62
2022/10/13 11:55:26;;;;;;;;;;;14.70;99.90;;;;;;6115722;23;19925;-63
2022/10/13 11:58:06;;;;;;;;;;;14.60;99.90;;;;;;6114424;23;19932;-65
2022/10/13 12:00:32;;;;;;;;;;;14.50;99.90;;;;;;6114212;23;19925;-63
2022/10/13 12:02:57;;;;;;;;;;;14.60;99.90;;;;;;6115352;23;19948;-62
2022/10/13 12:05:28;;;;;;;;;;;14.70;99.90;;;;;;6114500;23;19979;-62
2022/10/13 12:07:56;;;;;;;;;;;14.80;99.90;;;;;;6115017;23;19925;-62
2022/10/13 12:10:29;;;;;;;;;;;14.90;99.90;;;;;;6115517;23;19925;-62
2022/10/13 12:12:55;;;;;;;;;;;15.00;99.90;;;;;;6116122;23;19925;-62
2022/10/13 12:15:27;;;;;;;;;;;15.10;99.90;;;;;;6115883;23;19932;-62
2022/10/13 12:17:52;;;;;;;;;;;15.10;99.90;;;;;;6116384;23;19925;-62
2022/10/13 12:20:18;;;;;;;;;;;15.00;99.90;;;;;;6116256;23;20328;-63
2022/10/13 12:22:47;;;;;;;;;;;15.00;99.90;;;;;;6115290;23;20012;-64
2022/10/13 12:25:16;;;;;;;;;;;15.00;99.90;;;;;;6116011;23;20366;-65
2022/10/13 12:27:46;;;;;;;;;;;15.00;99.90;;;;;;6115860;23;19925;-64
2022/10/13 12:30:22;;;;;;;;;;;15.10;99.90;;;;;;6115800;23;20343;-65
2022/10/13 12:32:49;;;;;;;;;;;15.00;99.90;;;;;;6115734;23;19935;-66
2022/10/13 12:35:16;;;;;;;;;;;15.00;99.90;;;;;;6115967;23;20306;-64
2022/10/13 12:37:42;;;;;;;;;;;15.00;99.90;;;;;;6114932;23;19931;-63
2022/10/13 12:40:09;;;;;;;;;;;15.00;99.90;;;;;;6114678;23;19924;-63
2022/10/13 12:42:36;;;;;;;;;;;15.10;99.90;;;;;;6114443;23;19935;-63
2022/10/13 12:45:02;;;;;;;;;;;15.10;99.90;;;;;;6114521;23;19931;-63
2022/10/13 12:47:34;;;;;;;;;;;15.20;99.90;;;;;;6115244;23;19924;-63
2022/10/13 12:50:18;;;;;;;;;;;15.20;99.90;;;;;;6116098;23;19925;-63
2022/10/13 12:52:43;;;;;;;;;;;15.20;99.90;;;;;;6116104;23;19933;-63
2022/10/13 12:55:16;;;;;;;;;;;15.20;99.90;;;;;;6112455;23;19952;-64
2022/10/13 12:57:44;;;;;;;;;;;15.00;99.90;;;;;;6113922;23;19983;-63
2022/10/13 13:00:19;;;;;;;;;;;15.00;99.90;;;;;;6088266;23;19924;-63
2022/10/13 13:02:54;;;;;;;;;;;15.10;99.90;;;;;;6113305;23;19925;-64
2022/10/13 13:05:29;;;;;;;;;;;15.00;99.90;;;;;;6113184;23;19925;-65
2022/10/13 13:07:55;;;;;;;;;;;15.00;99.90;;;;;;6112724;23;20332;-67
2022/10/13 13:10:20;;;;;;;;;;;15.00;99.90;;;;;;6115693;23;19925;-63
2022/10/13 13:12:47;;;;;;;;;;;15.00;99.90;;;;;;6113791;23;20362;-62
2022/10/13 13:15:17;;;;;;;;;;;14.90;99.90;;;;;;6114440;23;19925;-64
2022/10/13 13:17:44;;;;;;;;;;;15.00;99.90;;;;;;6113737;23;20423;-63
2022/10/13 13:20:18;;;;;;;;;;;14.90;99.90;;;;;;6113716;23;19971;-67
2022/10/13 13:22:44;;;;;;;;;;;15.00;99.90;;;;;;6113334;23;19929;-63
2022/10/13 13:25:09;;;;;;;;;;;15.10;99.90;;;;;;6114073;23;19921;-62
2022/10/13 13:27:37;;;;;;;;;;;15.10;99.90;;;;;;6114276;23;19925;-62
2022/10/13 13:30:02;;;;;;;;;;;15.10;99.90;;;;;;6112896;23;19970;-62
2022/10/13 13:32:29;;;;;;;;;;;15.00;99.90;;;;;;6113418;23;19925;-62
2022/10/13 13:34:55;;;;;;;;;;;15.00;99.90;;;;;;6113515;23;20008;-63
2022/10/13 13:37:32;;;;;;;;;;;14.90;99.90;;;;;;6113625;23;19952;-62
2022/10/13 13:39:58;;;;;;;;;;;14.90;99.90;;;;;;6113276;23;20009;-62
2022/10/13 13:42:23;;;;;;;;;;;14.90;99.90;;;;;;6113792;23;20004;-62
2022/10/13 13:44:49;;;;;;;;;;;14.90;99.90;;;;;;6111926;23;20355;-62
2022/10/13 13:47:19;;;;;;;;;;;14.80;99.90;;;;;;6111957;23;20300;-65
2022/10/13 13:49:45;;;;;;;;;;;14.70;99.90;;;;;;6112869;23;19936;-63
2022/10/13 13:52:10;;;;;;;;;;;14.80;99.90;;;;;;6112613;23;20367;-62
2022/10/13 13:54:36;;;;;;;;;;;14.70;99.90;;;;;;6112929;23;19936;-62
2022/10/13 13:57:02;;;;;;;;;;;14.70;99.90;;;;;;6113280;23;20043;-63
2022/10/13 13:59:27;;;;;;;;;;;14.80;99.90;;;;;;6113103;23;19925;-62
2022/10/13 14:01:53;;;;;;;;;;;15.00;99.90;;;;;;6113874;23;19925;-62
2022/10/13 14:04:19;;;;;;;;;;;15.10;99.90;;;;;;6111785;23;19924;-62
2022/10/13 14:06:44;;;;;;;;;;;15.30;99.90;;;;;;6111281;23;19925;-62
2022/10/13 14:09:10;;;;;;;;;;;15.50;99.90;;;;;;6111719;23;19925;-62
2022/10/13 14:11:35;;;;;;;;;;;15.50;99.90;;;;;;6112110;23;19932;-62
2022/10/13 14:14:01;;;;;;;;;;;15.50;99.90;;;;;;6114379;23;19925;-62
2022/10/13 14:16:27;;;;;;;;;;;15.50;99.90;;;;;;6114349;23;19928;-63
2022/10/13 14:18:55;;;;;;;;;;;15.50;99.90;;;;;;6112654;23;20363;-62
2022/10/13 14:21:20;;;;;;;;;;;15.40;99.90;;;;;;6113580;23;19925;-62
2022/10/13 14:23:46;;;;;;;;;;;15.50;99.90;;;;;;6113897;23;20000;-62
2022/10/13 14:26:12;;;;;;;;;;;15.20;99.90;;;;;;6113506;23;20247;-63
2022/10/13 14:28:41;;;;;;;;;;;15.20;99.90;;;;;;6114199;23;20352;-63